MAPA DE AEROPUERTO

INFORMACIÓN METAR y TAF


Deprecated: The each() function is deprecated. This message will be suppressed on further calls in /home/customer/www/clickair-va.com/public_html/VAM/vam/helpers/get_metar.php on line 20
METAR FOR LECH
ADDS - METARS form results

(1901 UTC 13 January 2023)
Data provider http://aviationweather.gov/metar/data/
 
METAR text: LECH 131830Z AUTO 25001KT CAVOK 10/01 Q1027
Conditions at: LECH (CASTELLON , ES) observed 1830 UTC 13 January 2023
Temperature: 10.0°C (50°F)
Dewpoint: 1.0°C (34°F) [RH = 53%]
Pressure (altimeter): 30.32 inches Hg (1027.0 mb)
Winds: from the WSW (250 degrees) at 1 MPH (1 knots; 0.5 m/s)
Visibility: 6 or more miles (10+ km)
Ceiling: ceiling and visibility are OK
Clouds: unknown
Weather: no significant weather observed at this time